• Join FlightAware (Why Join?)
  • Login
  • US Flag 
08:38PM EDT


 

Airport Tracker/Info


-or-


 

Live Flight TrackerFlight Track Log ✈ N8775A ✈ 01-May-2012 ✈ CYOW - KDTW

Flight Track Log - Related Links

Times and Time Zones

All times are in EDT time to prevent confusion due to time zone crossing. See the N8775A flight status page for this flight to view local times or setup timezone preferences in your user account.

Time Position Orientation Groundspeed Altitude Reporting Facility
EDT Latitude Longitude Course Direction KTS MPH feet Rate Location/Type
04:38PM 45.3167 -75.6000 65° Northeast 160 184 900  Level Toronto Center
04:39PM 45.3333 -75.5500 25° Northeast 180 207 2,600 1,740 Climbing Toronto Center
04:40PM 45.3833 -75.5167 332° Northwest 230 265 4,400 2,160 Climbing Toronto Center
04:41PM 45.4500 -75.5667 259° West 260 299 7,000 2,580 Climbing Toronto Center
04:42PM 45.4333 -75.6833 240° Southwest 270 311 9,600 2,040 Climbing Toronto Center
04:43PM 45.4000 -75.7667 239° Southwest 290 334 11,100 1,380 Climbing Toronto Center
04:44PM 45.3500 -75.8833 239° Southwest 330 380 12,400 1,380 Climbing Toronto Center
04:45PM 45.3000 -76.0000 253° West 350 403 13,900 1,620 Climbing Toronto Center
04:46PM 45.2667 -76.1500 235° Southwest 350 403 15,700 1,620 Climbing Toronto Center
04:47PM 45.2167 -76.2500 245° Southwest 350 403 17,200 1,260 Climbing Toronto Center
04:48PM 45.1667 -76.4000 230° Southwest 350 403 18,300 1,080 Climbing Toronto Center
04:49PM 45.1167 -76.4833 242° Southwest 350 403 19,400 960 Climbing Toronto Center
04:50PM 45.0667 -76.6167 251° West 360 414 20,300 960 Climbing Toronto Center
04:51PM 45.0333 -76.7500 239° Southwest 370 426 21,400 960 Climbing Toronto Center
04:52PM 44.9833 -76.8667 235° Southwest 370 426 22,300 960 Climbing Toronto Center
04:53PM 44.9167 -77.0000 247° West 370 426 23,400 1,020 Climbing Toronto Center
04:54PM 44.8667 -77.1667 239° Southwest 370 426 24,400 780 Climbing Montreal Center
04:55PM 44.8167 -77.2833 239° Southwest 360 414 25,100 660 Climbing Montreal Center
04:56PM 44.7667 -77.4000 245° Southwest 370 426 25,800 720 Climbing Montreal Center
04:57PM 44.7167 -77.5500 230° Southwest 370 426 26,600 660 Climbing Montreal Center
04:58PM 44.6667 -77.6333 242° Southwest 370 426 27,200 540 Climbing Toronto Center
04:59PM 44.6167 -77.7667 239° Southwest 380 437 27,700 480 Climbing Toronto Center
05:00PM 44.5667 -77.8833 235° Southwest 380 437 28,200 480 Climbing Toronto Center
05:01PM 44.5000 -78.0167 239° Southwest 390 449 28,700 480 Climbing Toronto Center
05:02PM 44.4500 -78.1333 238° Southwest 390 449 29,200 480 Climbing Toronto Center
05:03PM 44.3833 -78.2833 239° Southwest 390 449 29,700 360 Climbing Toronto Center
05:04PM 44.3333 -78.4000 242° Southwest 390 449 30,000 120 Climbing Toronto Center
05:05PM 44.2833 -78.5333 245° Southwest 400 460 30,000  Level Toronto Center
05:06PM 44.2333 -78.6833 235° Southwest 410 472 30,000  Level Toronto Center
05:07PM 44.1667 -78.8167 238° Southwest 410 472 30,000  Level Toronto Center
05:08PM 44.1000 -78.9667 239° Southwest 410 472 30,000  Level Toronto Center
05:09PM 44.0500 -79.0833 239° Southwest 410 472 30,000  Level Toronto Center
05:11PM 43.9333 -79.3500 238° Southwest 420 483 30,000  Level Toronto Center
05:12PM 43.8667 -79.5000 235° Southwest 420 483 30,000  Level Toronto Center
05:13PM 43.8000 -79.6333 225° Southwest 420 483 30,000  Level Toronto Center
05:14PM 43.7167 -79.7500 218° Southwest 430 495 30,000 -540 Level Toronto Center
05:16PM 43.5333 -79.9500 220° Southwest 430 495 28,500 -1,080 Descending Toronto Center
05:17PM 43.4333 -80.0667 221° Southwest 430 495 26,900 -1,500 Descending Toronto Center
05:18PM 43.3500 -80.1667 216° Southwest 430 495 25,500 -1,500 Descending Toronto Center
05:19PM 43.2500 -80.2667 221° Southwest 420 483 23,900 -1,560 Descending Toronto Center
05:20PM 43.1667 -80.3667 216° Southwest 390 449 22,400 -960 Descending Toronto Center
05:21PM 43.0833 -80.4500 216° Southwest 360 414 22,000 -240 Descending Toronto Center
05:22PM 43.0167 -80.5167 221° Southwest 360 414 22,000  Level Toronto Center
05:23PM 42.9333 -80.6167 223° Southwest 360 414 22,000  Level Toronto Center
05:24PM 42.8667 -80.7000 226° Southwest 360 414 22,000  Level Toronto Center
05:25PM 42.8186 -80.7672 219° Southwest 376 433 22,000  Level Cleveland Center
05:26PM 42.7392 -80.8544 242° Southwest 371 427 22,000  Level Cleveland Center
05:27PM 42.6931 -80.9731 264° West 338 389 22,000  Level Cleveland Center
05:28PM 42.6819 -81.1114 261° West 358 412 22,000 -60 Level Cleveland Center
05:29PM 42.6667 -81.2439 261° West 365 420 21,900 -720 Descending Cleveland Center
05:30PM 42.6514 -81.3736 261° West 360 414 20,600 -1,260 Descending Cleveland Center
05:31PM 42.6358 -81.5003 262° West 350 403 19,400 -1,200 Descending Cleveland Center
05:32PM 42.6222 -81.6300 261° West 350 403 18,200 -1,200 Descending Cleveland Center
05:33PM 42.6064 -81.7650 258° West 350 403 17,100 -1,200 Descending Cleveland Center
05:34PM 42.5883 -81.8833 261° West 345 397 15,800 -1,260 Descending Cleveland Center
05:35PM 42.5744 -82.0069 260° West 340 391 14,600 -1,200 Descending Cleveland Center
05:36PM 42.5583 -82.1278 263° West 327 376 13,400 -1,260 Descending Cleveland Center
05:37PM 42.5483 -82.2319 260° West 311 358 12,300 -960 Descending Cleveland Center
05:37PM 42.5392 -82.2992 256° West 303 349 12,000 -300 Descending Cleveland Center
05:38PM 42.5300 -82.3497 261° West 306 352 12,000  Level Cleveland Center
05:38PM 42.5228 -82.4144 261° West 280 322 12,000  Level Cleveland Center
05:39PM 42.5106 -82.5153 251° West 276 318 12,000 -180 Level Cleveland Center
05:40PM 42.4839 -82.6186 235° Southwest 277 319 11,700 -1,200 Descending Cleveland Center
05:42PM 42.4300 -82.7211 236° Southwest 276 318 9,200 -1,440 Descending Cleveland Center
05:42PM 42.3953 -82.7903 232° Southwest 255 293 8,700 -1,080 Descending Cleveland Center
05:44PM 42.3522 -82.8647 262° West 254 292 7,300 -900 Descending Cleveland Center
05:44PM 42.3442 -82.9431 292° West 221 254 7,000 -180 Descending Cleveland Center
05:45PM 42.3658 -83.0142 315° West 204 235 7,000 -300 Level Cleveland Center
05:46PM 42.4061 -83.0692 273° West 196 226 6,500 -660 Descending Cleveland Center
05:48PM 42.4086 -83.1450 237° Southwest 203 234 5,600 -720 Descending Cleveland Center
05:49PM 42.3781 -83.2086 217° Southwest 202 232 5,000 -840 Descending Cleveland Center
05:50PM 42.3356 -83.2517 207° Southwest 191 220 4,000 -1,380 Descending Cleveland Center
05:51PM 42.2889 -83.2833 210° Southwest 183 211 2,300 -1,320 Descending Cleveland Center
05:52PM 42.2483 -83.3153 334° Northwest 150 173 1,400 11,400 Descending Cleveland Center
05:53PM 47.0000 -86.8167 10° North 510 587 29,000 11,880 Climbing Toronto Center
05:54PM 47.1333 -86.7833 10° North 510 587 29,000  Level Toronto Center